aviador You're here:

EPKK Decoded Metar

KRAKOW in POLAND
Report Time2017-11-21 00:30:00
UTC Time2017-11-21 00:51:43
Flight Rules mvfr MVFR
Wind250° at 07 kt
W.Decomp.*RWY 25: 7.0 kt HW 0.4 kt LCW
W.Rank250° ranks 3
Current wind is below 250° avg. (8.6)
Visibility8000 m
Phenomena:Light Shower Rain
Clouds:Scattered TCU 017 Hf
Broken 026 Hf
Expected CloudBase > 400 ft AGL from Temp-Dew spread
Ceiling2,600 ft
Temp02°C (ISA -11)
Dew Point01°C (93% RH)
AAT-2.4°C
QNH1013 hPa
Density Alt-522 ft
Elevation778 ft
Report Wrong Elevation
Raw Report
EPKK 210030Z 25007KT 8000 -SHRA SCT017TCU BKN026 02/01 Q1013=

Extra information for EPKK:More info

Metar Taf Metar & Taf Last 4 Metars F.Rules Stats Wind Profile Meteogram Temp Stats Airport Information Weather charts Add Link Nearby VenuesMetar ALERT Operation Metar Decoded Social comments